Time;durP1;ratioP1;P1;durP2;ratioP2;P2;SDS_P1;SDS_P2;PMS_P1;PMS_P2;Temp;Humidity;BMP_temperature;BMP_pressure;BME280_temperature;BME280_humidity;BME280_pressure;Samples;Min_cycle;Max_cycle;Signal;HPM_P1;HPM_P2
2023/01/29 00:01:57;;;;;;;0.00;0.00;;;;;;;5.48;50.05;95214.06;4970994;28;20206;-62
2023/01/29 00:04:24;;;;;;;0.73;0.52;;;;;;;5.55;50.05;95213.97;4959209;28;20199;-62
2023/01/29 00:06:51;;;;;;;0.95;0.95;;;;;;;5.30;50.37;95226.25;4971038;28;20203;-65
2023/01/29 00:09:18;;;;;;;0.25;0.25;;;;;;;5.18;50.62;95224.34;4961205;28;20241;-62
2023/01/29 00:11:45;;;;;;;0.00;0.00;;;;;;;5.28;50.65;95233.44;4971388;28;20229;-64
2023/01/29 00:14:12;;;;;;;0.00;0.00;;;;;;;5.55;50.23;95232.19;4962883;28;20219;-61
2023/01/29 00:16:39;;;;;;;0.10;0.10;;;;;;;5.29;50.94;95229.84;4971221;28;20207;-61
2023/01/29 00:19:06;;;;;;;0.00;0.00;;;;;;;5.54;50.24;95239.19;4964834;28;20663;-62
2023/01/29 00:21:33;;;;;;;0.03;0.03;;;;;;;5.54;50.21;95235.81;4970389;28;20230;-62
2023/01/29 00:24:00;;;;;;;1.85;1.10;;;;;;;5.48;50.64;95236.66;4966205;28;20231;-61
2023/01/29 00:26:28;;;;;;;0.43;0.43;;;;;;;5.55;50.69;95238.19;4970816;28;20203;-62
2023/01/29 00:29:00;;;;;;;0.00;0.00;;;;;;;5.59;50.43;95241.13;4963792;28;20682;-62
2023/01/29 00:31:28;;;;;;;0.00;0.00;;;;;;;5.62;50.40;95249.28;4970183;28;20243;-62
2023/01/29 00:33:55;;;;;;;0.30;0.30;;;;;;;5.62;50.38;95245.94;4965871;28;20576;-61
2023/01/29 00:36:24;;;;;;;0.10;0.10;;;;;;;5.42;50.70;95240.13;4970056;28;20203;-61
2023/01/29 00:38:57;;;;;;;0.00;0.00;;;;;;;5.64;50.04;95241.31;4972735;28;20207;-62
2023/01/29 00:46:59;;;;;;;0.00;0.00;;;;;;;5.42;50.32;95245.31;4970765;28;20191;-62
2023/01/29 00:49:28;;;;;;;0.00;0.00;;;;;;;5.48;50.75;95242.66;4984300;28;20207;-62
2023/01/29 00:54:42;;;;;;;0.90;0.80;;;;;;;5.51;50.17;95247.41;4969000;28;20235;-62
2023/01/29 00:57:09;;;;;;;0.00;0.00;;;;;;;5.28;51.22;95238.66;4970935;28;20262;-62
2023/01/29 00:59:36;;;;;;;2.05;1.17;;;;;;;5.29;51.20;95245.44;4970309;28;20214;-61
2023/01/29 01:05:12;;;;;;;0.10;0.10;;;;;;;5.47;51.53;95235.06;4974740;28;20258;-63
2023/01/29 01:07:40;;;;;;;0.13;0.13;;;;;;;5.72;50.80;95241.00;4974862;28;20207;-62
2023/01/29 01:10:21;;;;;;;0.00;0.00;;;;;;;5.64;50.84;95243.91;4968230;28;20227;-62
2023/01/29 01:12:57;;;;;;;0.00;0.00;;;;;;;4.68;52.50;95237.53;4970649;28;20237;-62
2023/01/29 01:15:27;;;;;;;1.27;1.17;;;;;;;5.31;52.04;95235.63;4969762;28;20195;-63
2023/01/29 01:17:56;;;;;;;0.00;0.00;;;;;;;4.80;52.80;95241.84;4957926;28;20310;-62
2023/01/29 01:20:25;;;;;;;0.00;0.00;;;;;;;4.92;52.61;95237.56;4968582;28;20206;-61
2023/01/29 01:22:55;;;;;;;0.00;0.00;;;;;;;4.81;52.59;95227.88;4970696;28;20278;-62
2023/01/29 01:25:25;;;;;;;0.35;0.35;;;;;;;5.25;52.02;95236.47;4967445;28;20559;-64
2023/01/29 01:27:52;;;;;;;0.00;0.00;;;;;;;4.61;53.48;95232.41;4970888;28;20234;-62
2023/01/29 01:30:20;;;;;;;0.52;0.52;;;;;;;4.97;52.72;95232.53;4966918;28;20200;-63
2023/01/29 01:32:46;;;;;;;0.20;0.20;;;;;;;4.32;53.73;95233.00;4962488;28;20239;-61
2023/01/29 01:35:13;;;;;;;0.17;0.17;;;;;;;4.46;53.54;95234.50;4969831;28;20250;-63
2023/01/29 01:37:41;;;;;;;0.00;0.00;;;;;;;4.71;52.75;95222.34;4970309;28;20306;-62
2023/01/29 01:40:17;;;;;;;0.43;0.40;;;;;;;5.10;52.36;95248.00;4969543;28;20195;-62
2023/01/29 01:42:49;;;;;;;0.32;0.32;;;;;;;4.50;53.30;95240.06;4969795;28;20764;-62
2023/01/29 01:45:21;;;;;;;0.00;0.00;;;;;;;4.47;53.52;95241.25;4969768;28;20265;-61
2023/01/29 01:47:53;;;;;;;0.70;0.70;;;;;;;4.80;53.36;95236.66;4969871;28;20201;-62
2023/01/29 01:50:26;;;;;;;0.00;0.00;;;;;;;5.10;52.34;95236.81;4969821;28;20230;-62
2023/01/29 01:52:58;;;;;;;0.65;0.65;;;;;;;5.04;52.39;95238.47;4969874;28;20250;-62
2023/01/29 01:55:29;;;;;;;0.28;0.28;;;;;;;4.97;52.95;95248.09;4972866;28;20227;-62
2023/01/29 01:58:05;;;;;;;0.15;0.15;;;;;;;4.85;52.95;95246.41;4969974;28;20298;-61
2023/01/29 02:00:32;;;;;;;0.00;0.00;;;;;;;4.67;53.12;95251.53;4971463;28;20203;-61
2023/01/29 02:11:39;;;;;;;0.00;0.00;;;;;;;5.08;52.55;95255.22;4969219;28;20286;-61
2023/01/29 02:14:07;;;;;;;0.80;0.47;;;;;;;4.90;53.25;95249.97;4957005;28;20239;-62
2023/01/29 02:16:36;;;;;;;0.10;0.10;;;;;;;4.81;53.72;95253.03;4969372;28;20950;-62
2023/01/29 02:19:09;;;;;;;0.20;0.20;;;;;;;4.69;53.86;95249.53;4969776;28;20353;-62
2023/01/29 02:22:04;;;;;;;0.10;0.10;;;;;;;5.14;53.27;95254.38;4969313;28;20295;-61
2023/01/29 02:24:54;;;;;;;2.20;1.27;;;;;;;5.44;52.65;95243.31;4969623;28;20321;-62
2023/01/29 02:27:36;;;;;;;0.10;0.10;;;;;;;5.09;53.15;95256.00;4969595;28;20195;-62
2023/01/29 02:30:32;;;;;;;0.82;0.80;;;;;;;5.18;53.18;95263.31;4969060;28;20654;-62
2023/01/29 02:33:29;;;;;;;0.20;0.20;;;;;;;4.69;54.24;95267.69;4969406;28;20330;-61
2023/01/29 02:36:27;;;;;;;0.52;0.52;;;;;;;5.21;53.44;95263.88;4969655;28;20203;-62
2023/01/29 02:39:07;;;;;;;0.00;0.00;;;;;;;5.09;53.71;95267.19;4969683;28;20226;-63
2023/01/29 02:41:46;;;;;;;0.10;0.10;;;;;;;5.16;53.50;95267.91;4968652;28;20199;-62
2023/01/29 02:44:28;;;;;;;0.65;0.65;;;;;;;5.45;53.00;95270.88;4972332;28;20207;-63
2023/01/29 02:47:11;;;;;;;0.38;0.32;;;;;;;5.27;53.29;95274.25;4958005;28;20203;-61
2023/01/29 02:50:02;;;;;;;0.00;0.00;;;;;;;5.14;53.81;95274.34;4950794;28;20196;-63
2023/01/29 02:52:42;;;;;;;0.00;0.00;;;;;;;5.58;52.01;95275.94;4963068;28;20235;-63
2023/01/29 02:55:16;;;;;;;11.02;0.57;;;;;;;5.31;53.10;95275.38;4973852;28;20220;-63
2023/01/29 02:57:47;;;;;;;0.10;0.10;;;;;;;4.87;53.58;95262.56;4964624;28;20200;-62
2023/01/29 03:00:23;;;;;;;0.00;0.00;;;;;;;4.86;53.83;95279.16;4948488;28;20267;-62
2023/01/29 03:03:01;;;;;;;0.85;0.75;;;;;;;5.16;53.47;95272.34;4960762;28;20609;-62
2023/01/29 03:05:43;;;;;;;17.25;2.03;;;;;;;4.81;54.40;95273.78;4974700;28;20207;-62
2023/01/29 03:08:17;;;;;;;0.00;0.00;;;;;;;4.46;55.49;95280.38;4973076;28;20233;-62
2023/01/29 03:10:53;;;;;;;0.55;0.55;;;;;;;4.69;54.69;95281.44;4953100;28;20204;-62
2023/01/29 03:13:47;;;;;;;1.08;1.08;;;;;;;5.22;53.33;95281.09;4963696;28;20211;-62
2023/01/29 03:16:48;;;;;;;0.00;0.00;;;;;;;4.99;53.89;95272.06;4986832;28;20731;-62
2023/01/29 03:19:33;;;;;;;0.10;0.10;;;;;;;4.89;54.29;95270.94;4961475;28;20286;-62
2023/01/29 03:22:06;;;;;;;0.00;0.00;;;;;;;5.14;53.50;95259.56;4967696;28;20298;-62
2023/01/29 03:34:04;;;;;;;0.00;0.00;;;;;;;4.89;54.31;95279.50;4979558;28;20227;-63
2023/01/29 03:36:44;;;;;;;0.10;0.10;;;;;;;4.90;54.08;95283.72;4967175;28;20214;-62
2023/01/29 03:39:14;;;;;;;2.50;1.45;;;;;;;4.93;53.98;95283.28;4959469;28;20572;-62
2023/01/29 03:41:52;;;;;;;3.90;1.98;;;;;;;4.84;54.00;95283.75;4967406;28;20674;-63
2023/01/29 03:44:30;;;;;;;0.00;0.00;;;;;;;4.92;53.65;95286.09;4970388;28;20231;-62
2023/01/29 03:47:13;;;;;;;0.00;0.00;;;;;;;4.89;54.29;95276.16;4962187;28;20235;-62
2023/01/29 03:49:49;;;;;;;0.65;0.65;;;;;;;4.76;54.41;95286.63;4970060;28;20219;-64
2023/01/29 03:52:16;;;;;;;0.20;0.20;;;;;;;4.85;54.50;95282.75;4974711;28;20625;-61
2023/01/29 03:55:00;;;;;;;0.00;0.00;;;;;;;5.01;54.02;95280.44;4966821;28;20314;-62
2023/01/29 03:57:59;;;;;;;3.30;2.10;;;;;;;4.56;54.90;95285.94;4970198;28;20207;-62
2023/01/29 04:00:55;;;;;;;0.05;0.05;;;;;;;4.61;54.67;95294.69;4986361;28;20294;-62
2023/01/29 04:03:34;;;;;;;0.00;0.00;;;;;;;5.08;53.88;95283.78;4986708;28;20242;-62
2023/01/29 04:06:12;;;;;;;0.00;0.00;;;;;;;4.84;54.21;95288.94;4954538;28;21052;-64
2023/01/29 04:09:09;;;;;;;0.10;0.10;;;;;;;4.70;54.91;95290.03;4968147;28;20211;-62
2023/01/29 04:11:44;;;;;;;0.00;0.00;;;;;;;4.87;54.69;95289.31;4969274;28;20226;-63
2023/01/29 04:14:12;;;;;;;0.40;0.40;;;;;;;4.70;54.35;95251.09;4971749;28;20294;-63
2023/01/29 04:16:43;;;;;;;0.00;0.00;;;;;;;4.66;54.64;95281.88;4958005;28;20200;-63
2023/01/29 04:19:26;;;;;;;1.02;1.00;;;;;;;4.34;55.34;95298.44;4970646;28;20294;-62
2023/01/29 04:22:12;;;;;;;0.32;0.08;;;;;;;4.32;56.02;95300.44;4971311;28;20552;-62
2023/01/29 04:24:41;;;;;;;0.00;0.00;;;;;;;4.80;55.26;95298.94;4973751;28;20242;-62
2023/01/29 04:27:27;;;;;;;0.47;0.47;;;;;;;4.89;54.90;95297.69;4978115;28;20198;-62
2023/01/29 04:30:16;;;;;;;0.00;0.00;;;;;;;4.56;55.43;95302.28;4966167;28;20294;-62
2023/01/29 04:33:03;;;;;;;0.10;0.10;;;;;;;5.20;54.14;95302.06;4978391;28;20239;-62
2023/01/29 04:36:04;;;;;;;0.47;0.47;;;;;;;4.55;55.04;95300.72;4967822;28;20234;-63
2023/01/29 04:38:46;;;;;;;0.00;0.00;;;;;;;4.63;55.20;95303.06;4972955;28;20679;-64
2023/01/29 04:41:14;;;;;;;0.00;0.00;;;;;;;4.56;55.11;95304.09;4973079;28;20206;-64
2023/01/29 04:44:23;;;;;;;0.43;0.43;;;;;;;4.56;55.16;95302.28;4971628;28;20195;-62
2023/01/29 04:47:27;;;;;;;0.03;0.03;;;;;;;4.62;55.00;95306.66;4959717;28;20263;-63
2023/01/29 04:50:21;;;;;;;0.00;0.00;;;;;;;4.70;54.52;95309.00;4970733;28;20284;-63
2023/01/29 04:53:02;;;;;;;0.03;0.03;;;;;;;4.49;55.09;95306.72;4971227;28;20195;-63
2023/01/29 04:55:58;;;;;;;0.00;0.00;;;;;;;4.54;55.08;95309.50;4970874;28;20694;-63
2023/01/29 04:58:38;;;;;;;0.00;0.00;;;;;;;5.07;53.87;95295.16;4961621;28;20644;-62
2023/01/29 05:01:09;;;;;;;0.40;0.30;;;;;;;4.83;53.95;95302.94;4970382;28;20223;-64
2023/01/29 05:03:40;;;;;;;0.00;0.00;;;;;;;4.84;53.95;95305.31;4971250;28;20203;-62
2023/01/29 05:06:09;;;;;;;0.00;0.00;;;;;;;4.83;54.38;95303.75;4970621;28;20293;-63
2023/01/29 05:08:38;;;;;;;0.00;0.00;;;;;;;5.08;53.97;95304.56;4971037;28;20230;-64
2023/01/29 05:11:05;;;;;;;0.00;0.00;;;;;;;5.03;53.32;95304.41;4970302;28;20650;-63
2023/01/29 05:13:35;;;;;;;0.10;0.10;;;;;;;4.82;53.85;95315.13;4970451;28;20633;-62
2023/01/29 05:16:26;;;;;;;0.00;0.00;;;;;;;5.53;52.46;95314.78;4970146;28;20222;-62
2023/01/29 05:18:54;;;;;;;0.15;0.15;;;;;;;5.12;52.77;95312.72;4970768;28;20214;-64
2023/01/29 05:21:22;;;;;;;0.20;0.20;;;;;;;5.11;52.85;95317.13;4970002;28;20211;-64
2023/01/29 05:24:27;;;;;;;3.72;2.15;;;;;;;5.09;53.22;95324.31;4970314;28;20191;-64
2023/01/29 05:29:44;;;;;;;0.00;0.00;;;;;;;4.89;53.64;95326.25;4967972;28;20274;-63
2023/01/29 05:32:11;;;;;;;0.00;0.00;;;;;;;4.88;53.29;95327.28;4964146;28;20230;-63
2023/01/29 05:34:39;;;;;;;1.08;0.98;;;;;;;4.79;53.69;95328.53;4969705;28;20694;-64
2023/01/29 05:37:06;;;;;;;0.00;0.00;;;;;;;5.09;53.36;95332.13;4969876;28;20205;-63
2023/01/29 05:39:33;;;;;;;0.15;0.15;;;;;;;4.64;54.08;95335.78;4970074;28;20682;-63
2023/01/29 05:42:01;;;;;;;0.00;0.00;;;;;;;4.59;54.62;95337.41;4970118;28;20195;-63
2023/01/29 05:44:27;;;;;;;0.63;0.63;;;;;;;4.77;53.98;95327.94;4969916;28;20238;-63
2023/01/29 05:46:54;;;;;;;;;;;;;;;4.73;54.29;95334.53;4970182;28;20227;-63
2023/01/29 05:49:21;;;;;;;;;;;;;;;4.35;55.05;95344.09;4970371;28;19936;-63
2023/01/29 05:51:48;;;;;;;;;;;;;;;4.58;54.41;95341.81;4970363;28;19968;-63
2023/01/29 05:54:15;;;;;;;;;;;;;;;4.21;55.23;95347.75;4970463;28;20036;-63
2023/01/29 05:56:42;;;;;;;;;;;;;;;4.66;54.66;95343.38;4970148;28;19930;-63
2023/01/29 05:59:08;;;;;;;;;;;;;;;5.27;53.61;95346.19;4970298;28;19965;-63
2023/01/29 06:01:35;;;;;;;;;;;;;;;5.01;54.23;95347.16;4969941;28;20297;-64
2023/01/29 06:04:02;;;;;;;;;;;;;;;5.14;53.47;95345.28;4970365;28;19922;-66
2023/01/29 06:06:29;;;;;;;;;;;;;;;5.31;53.42;95352.56;4970291;28;19926;-63
2023/01/29 06:08:56;;;;;;;;;;;;;;;5.32;53.44;95351.53;4970459;28;20032;-64
2023/01/29 06:11:23;;;;;;;;;;;;;;;5.22;53.88;95356.41;4969956;28;19966;-63
2023/01/29 06:13:50;;;;;;;;;;;;;;;5.41;53.17;95368.47;4970189;28;19922;-63
2023/01/29 06:16:17;;;;;;;;;;;;;;;5.39;53.07;95360.06;4969551;28;19926;-63
2023/01/29 06:18:43;;;;;;;;;;;;;;;5.25;54.12;95359.38;4970104;28;19926;-65
2023/01/29 06:21:11;;;;;;;;;;;;;;;5.36;53.47;95361.31;4969429;28;19922;-63
2023/01/29 06:23:38;;;;;;;;;;;;;;;5.37;53.63;95369.88;4969748;28;19931;-64
2023/01/29 06:26:07;;;;;;;;;;;;;;;5.05;54.50;95380.28;4969408;28;20000;-63
2023/01/29 06:28:33;;;;;;;;;;;;;;;5.04;53.94;95373.50;4970180;28;20009;-64
2023/01/29 06:31:01;;;;;;;;;;;;;;;5.00;54.45;95380.13;4969545;28;19926;-63
2023/01/29 06:33:47;;;;;;;;;;;;;;;4.86;54.96;95378.59;4957870;28;19922;-64
2023/01/29 06:36:14;;;;;;;;;;;;;;;4.62;55.38;95383.72;4971271;28;19980;-63
2023/01/29 06:38:41;;;;;;;;;;;;;;;4.55;55.41;95390.72;4973817;28;19933;-66
2023/01/29 06:41:09;;;;;;;;;;;;;;;4.36;56.61;95394.22;4973166;28;19923;-63
2023/01/29 06:43:36;;;;;;;;;;;;;;;4.48;55.78;95397.75;4973755;28;20017;-65
2023/01/29 06:46:05;;;;;;;;;;;;;;;5.13;54.53;95398.22;4972890;28;20360;-62
2023/01/29 06:48:32;;;;;;;;;;;;;;;5.01;55.07;95397.31;4973695;28;19932;-63
2023/01/29 06:51:04;;;;;;;;;;;;;;;5.07;54.50;95406.06;4973418;28;20017;-64
2023/01/29 06:53:30;;;;;;;;;;;;;;;5.01;54.73;95404.28;4973679;28;19922;-63
2023/01/29 06:55:57;;;;;;;;;;;;;;;4.92;55.13;95411.53;4973105;28;19926;-64
2023/01/29 06:58:25;;;;;;;;;;;;;;;4.32;56.17;95404.19;4973779;28;19957;-65
2023/01/29 07:00:51;;;;;;;;;;;;;;;4.42;56.70;95407.16;4973064;28;20312;-62
2023/01/29 07:03:19;;;;;;;;;;;;;;;4.59;56.28;95410.88;4973632;28;19922;-61
2023/01/29 07:05:49;;;;;;;;;;;;;;;4.74;55.81;95415.81;4973310;28;20370;-62
2023/01/29 07:08:16;;;;;;;;;;;;;;;4.94;55.38;95419.94;4973600;28;19926;-62
2023/01/29 07:10:43;;;;;;;;;;;;;;;4.94;55.26;95419.94;4972887;28;20010;-63
2023/01/29 07:13:10;;;;;;;;;;;;;;;4.50;56.08;95417.31;4973330;28;19937;-63
2023/01/29 07:15:36;;;;;;;;;;;;;;;5.01;55.27;95418.09;4972976;28;19989;-64
2023/01/29 07:18:10;;;;;;;;;;;;;;;4.74;55.78;95421.81;4973217;28;19922;-62
2023/01/29 07:20:40;;;;;;;;;;;;;;;4.76;56.15;95427.56;4972687;28;19926;-64
2023/01/29 07:23:13;;;;;;;;;;;;;;;4.64;55.80;95408.47;4973075;28;19965;-63
2023/01/29 07:25:40;;;;;;;;;;;;;;;4.99;55.55;95427.88;4972704;28;19929;-67
2023/01/29 07:28:07;;;;;;;0.10;0.10;;;;;;;5.09;54.84;95430.81;4972268;28;20975;-64
2023/01/29 07:30:34;;;;;;;5.35;1.38;;;;;;;5.28;54.97;95428.31;4972427;28;20210;-63
2023/01/29 07:33:06;;;;;;;0.00;0.00;;;;;;;5.54;54.42;95428.94;4971991;28;20237;-64
2023/01/29 07:35:42;;;;;;;0.00;0.00;;;;;;;5.12;54.61;95437.41;4972377;28;20329;-62
2023/01/29 07:38:10;;;;;;;0.65;0.65;;;;;;;5.15;55.07;95437.78;4972367;28;20207;-64
2023/01/29 07:40:37;;;;;;;0.38;0.38;;;;;;;4.77;55.42;95441.34;4972020;28;20206;-65
2023/01/29 07:43:06;;;;;;;0.00;0.00;;;;;;;5.44;54.13;95431.19;4972275;28;20206;-62
2023/01/29 07:45:35;;;;;;;4.57;1.90;;;;;;;5.27;54.13;95437.13;4971778;28;20213;-64
2023/01/29 07:48:06;;;;;;;0.20;0.20;;;;;;;4.81;54.97;95432.97;4971763;28;20856;-63
2023/01/29 07:50:34;;;;;;;0.05;0.05;;;;;;;5.32;54.24;95437.28;4972078;28;20207;-62
2023/01/29 07:53:02;;;;;;;0.00;0.00;;;;;;;5.16;54.35;95439.34;4972157;28;20191;-62
2023/01/29 07:55:29;;;;;;;0.70;0.70;;;;;;;4.89;55.02;95437.91;4971793;28;20608;-66
2023/01/29 07:57:57;;;;;;;0.00;0.00;;;;;;;5.22;54.40;95445.53;4971908;28;20195;-63
2023/01/29 08:00:24;;;;;;;0.40;0.40;;;;;;;5.25;54.12;95449.50;4970988;28;20239;-66
2023/01/29 08:02:51;;;;;;;0.38;0.38;;;;;;;5.29;54.34;95448.09;4971572;28;20199;-62
2023/01/29 08:05:18;;;;;;;0.45;0.25;;;;;;;5.41;54.72;95452.41;4971598;28;20218;-61
2023/01/29 08:07:51;;;;;;;0.55;0.55;;;;;;;5.23;54.57;95444.53;4971925;28;20596;-64
2023/01/29 08:10:32;;;;;;;0.28;0.28;;;;;;;5.62;53.90;95454.66;4971484;28;20195;-65
2023/01/29 08:13:00;;;;;;;1.67;1.58;;;;;;;5.79;53.69;95452.34;4971459;28;20209;-62
2023/01/29 08:15:27;;;;;;;2.83;1.85;;;;;;;5.59;53.12;95443.91;4970970;28;20223;-62
2023/01/29 08:17:54;;;;;;;0.45;0.45;;;;;;;5.61;53.11;95452.28;4971849;28;20639;-66
2023/01/29 08:20:24;;;;;;;0.30;0.30;;;;;;;5.23;54.41;95456.72;4971184;28;20195;-63
2023/01/29 08:23:03;;;;;;;0.57;0.57;;;;;;;5.09;54.46;95461.97;4971134;28;20642;-67
2023/01/29 08:25:31;;;;;;;0.10;0.10;;;;;;;5.45;53.52;95447.59;4969155;28;20664;-63
2023/01/29 08:27:59;;;;;;;2.00;1.85;;;;;;;5.32;54.11;95455.47;4966754;28;20195;-64
2023/01/29 08:30:28;;;;;;;0.00;0.00;;;;;;;5.03;54.48;95460.22;4969035;28;20532;-65
2023/01/29 08:32:55;;;;;;;0.85;0.85;;;;;;;5.38;53.47;95465.03;4966548;28;20239;-62
2023/01/29 08:35:23;;;;;;;5.47;2.05;;;;;;;5.10;53.94;95470.56;4967463;28;20687;-62
2023/01/29 08:37:54;;;;;;;0.10;0.10;;;;;;;5.14;53.77;95475.16;4963227;28;20233;-67
2023/01/29 08:40:21;;;;;;;1.75;1.65;;;;;;;5.11;54.05;95469.56;4966167;28;20236;-67
2023/01/29 08:42:48;;;;;;;0.20;0.20;;;;;;;5.51;53.13;95480.56;4968429;28;20643;-62
2023/01/29 08:45:15;;;;;;;0.15;0.15;;;;;;;5.64;52.72;95472.69;4967914;28;20235;-64
2023/01/29 08:47:48;;;;;;;1.38;1.27;;;;;;;5.30;52.99;95470.47;4968581;28;20207;-65
2023/01/29 08:50:16;;;;;;;0.05;0.05;;;;;;;5.18;53.32;95484.13;4977107;28;20207;-66
2023/01/29 08:52:44;;;;;;;0.85;0.85;;;;;;;5.33;53.54;95485.66;4978765;28;20222;-64
2023/01/29 08:55:12;;;;;;;0.55;0.55;;;;;;;5.69;52.45;95485.84;4968687;28;20630;-66
2023/01/29 08:57:38;;;;;;;0.43;0.43;;;;;;;5.77;52.44;95488.16;4968371;28;20290;-63
2023/01/29 09:00:08;;;;;;;0.00;0.00;;;;;;;5.56;52.24;95493.72;4968642;28;20649;-63
2023/01/29 09:02:35;;;;;;;0.20;0.20;;;;;;;5.42;52.62;95498.19;4964776;28;20714;-65
2023/01/29 09:05:02;;;;;;;0.00;0.00;;;;;;;5.03;53.27;95491.41;4968709;28;20242;-65
2023/01/29 09:07:29;;;;;;;8.98;2.05;;;;;;;4.95;53.22;95494.22;4966492;28;20704;-62
2023/01/29 09:09:56;;;;;;;3.90;2.67;;;;;;;5.23;53.69;95495.69;4957417;28;20206;-61
2023/01/29 09:12:22;;;;;;;6.97;2.55;;;;;;;5.80;52.99;95492.97;4967737;28;20232;-63
2023/01/29 09:14:49;;;;;;;0.57;0.57;;;;;;;5.45;52.42;95484.78;4970317;28;20294;-67
2023/01/29 09:17:16;;;;;;;5.97;0.90;;;;;;;5.93;51.53;95482.50;4968921;28;20225;-65
2023/01/29 09:19:43;;;;;;;0.50;0.50;;;;;;;5.72;51.18;95480.19;4968259;28;20211;-64
2023/01/29 09:22:10;;;;;;;0.10;0.10;;;;;;;5.27;51.90;95495.09;4965903;28;20191;-68
2023/01/29 09:24:37;;;;;;;0.47;0.47;;;;;;;5.43;52.12;95480.78;4968016;28;20198;-66
2023/01/29 09:27:05;;;;;;;0.00;0.00;;;;;;;5.99;50.87;95486.81;4967212;28;20246;-67
2023/01/29 09:29:31;;;;;;;4.47;1.95;;;;;;;5.81;50.47;95486.72;4968270;28;20226;-66
2023/01/29 09:32:03;;;;;;;0.00;0.00;;;;;;;5.91;50.84;95474.09;4966977;28;20231;-66
2023/01/29 09:34:30;;;;;;;0.28;0.28;;;;;;;5.84;51.52;95486.34;4968865;28;20200;-62
2023/01/29 09:36:57;;;;;;;0.00;0.00;;;;;;;6.04;51.32;95476.56;4967519;28;20229;-63
2023/01/29 09:39:24;;;;;;;0.60;0.35;;;;;;;6.20;51.55;95483.06;4968716;28;20199;-64
2023/01/29 09:42:09;;;;;;;0.30;0.30;;;;;;;6.29;50.25;95472.16;4967410;28;20222;-65
2023/01/29 09:45:09;;;;;;;0.00;0.00;;;;;;;6.33;50.57;95468.13;4970035;28;20568;-64
2023/01/29 09:47:36;;;;;;;0.10;0.10;;;;;;;5.84;51.21;95470.72;4967134;28;20218;-64
2023/01/29 09:50:09;;;;;;;0.00;0.00;;;;;;;5.55;51.47;95469.50;4967472;28;20687;-64
2023/01/29 09:52:59;;;;;;;0.00;0.00;;;;;;;5.32;52.20;95469.25;4966471;28;20303;-63
2023/01/29 09:55:31;;;;;;;0.63;0.45;;;;;;;6.15;50.68;95466.28;4966951;28;20730;-64
2023/01/29 09:58:21;;;;;;;0.25;0.25;;;;;;;6.19;50.43;95474.44;4967183;28;20242;-63
2023/01/29 10:01:01;;;;;;;0.47;0.47;;;;;;;6.31;50.45;95464.94;4966978;28;20199;-65
2023/01/29 10:03:56;;;;;;;1.45;1.20;;;;;;;6.20;49.87;95464.84;4967232;28;20709;-62
2023/01/29 10:06:32;;;;;;;0.73;0.73;;;;;;;6.09;50.61;95461.16;4964518;28;20207;-63
2023/01/29 10:09:14;;;;;;;0.17;0.17;;;;;;;6.43;52.07;95463.22;4968309;28;20290;-66
2023/01/29 10:11:44;;;;;;;2.28;2.08;;;;;;;6.66;50.74;95455.53;4963512;28;20212;-63
2023/01/29 10:14:21;;;;;;;0.32;0.32;;;;;;;6.96;50.72;95453.81;4969762;28;20361;-64
2023/01/29 10:17:15;;;;;;;0.50;0.50;;;;;;;6.94;49.66;95458.44;4965613;28;20254;-69
2023/01/29 10:19:51;;;;;;;0.90;0.73;;;;;;;6.07;50.04;95445.75;4969584;28;20293;-66
2023/01/29 10:22:24;;;;;;;0.00;0.00;;;;;;;6.17;49.72;95447.84;4973057;28;20261;-60
2023/01/29 10:25:04;;;;;;;1.23;1.15;;;;;;;6.56;49.81;95444.84;4973901;28;20630;-67
2023/01/29 10:27:37;;;;;;;0.52;0.43;;;;;;;6.57;49.41;95443.84;4962652;28;20195;-64
2023/01/29 10:30:37;;;;;;;0.15;0.15;;;;;;;6.37;49.32;95443.25;4979347;28;20333;-64
2023/01/29 10:33:11;;;;;;;0.73;0.73;;;;;;;5.99;50.74;95445.22;4968609;28;20234;-62
2023/01/29 10:35:55;;;;;;;0.43;0.43;;;;;;;6.44;50.59;95432.78;4971766;28;20195;-65
2023/01/29 10:38:33;;;;;;;1.70;1.25;;;;;;;5.46;51.71;95436.19;4971217;28;20242;-63
2023/01/29 10:41:15;;;;;;;0.03;0.03;;;;;;;5.90;50.89;95428.28;4969156;28;20203;-66
2023/01/29 10:43:54;;;;;;;10.65;1.15;;;;;;;6.14;50.34;95430.06;4958135;28;20203;-65
2023/01/29 10:46:46;;;;;;;0.50;0.50;;;;;;;6.21;50.28;95427.38;4966647;28;20203;-66
2023/01/29 10:49:28;;;;;;;0.38;0.38;;;;;;;5.22;51.57;95436.94;4963366;28;20203;-66
2023/01/29 10:52:10;;;;;;;0.00;0.00;;;;;;;5.52;51.60;95430.16;4962238;28;20934;-66
2023/01/29 10:54:42;;;;;;;0.00;0.00;;;;;;;5.25;52.20;95431.34;4968181;28;20745;-61
2023/01/29 10:57:38;;;;;;;0.25;0.15;;;;;;;5.14;52.06;95432.78;4960706;28;20220;-63
2023/01/29 11:00:18;;;;;;;0.70;0.70;;;;;;;5.55;51.80;95421.91;4959410;28;20207;-66
2023/01/29 11:02:47;;;;;;;0.22;0.22;;;;;;;5.75;51.50;95415.56;4962266;28;20199;-63
2023/01/29 11:05:29;;;;;;;3.20;1.95;;;;;;;5.38;51.56;95411.28;4968000;28;20646;-65
2023/01/29 11:08:15;;;;;;;0.63;0.63;;;;;;;5.46;52.21;95423.19;4958456;28;20568;-65
2023/01/29 11:11:11;;;;;;;0.00;0.00;;;;;;;5.31;52.26;95422.72;4967765;28;20199;-63
2023/01/29 11:13:47;;;;;;;0.10;0.10;;;;;;;5.31;53.12;95420.88;4968543;28;20206;-67
2023/01/29 11:16:14;;;;;;;1.27;1.17;;;;;;;5.47;52.72;95419.59;4968835;28;20717;-62
2023/01/29 11:18:51;;;;;;;0.25;0.22;;;;;;;5.55;52.00;95412.31;4967933;28;20195;-64
2023/01/29 11:21:18;;;;;;;1.45;1.35;;;;;;;5.75;51.38;95406.97;4968513;28;20682;-61
2023/01/29 11:23:45;;;;;;;0.10;0.10;;;;;;;5.99;50.37;95408.78;4960505;28;20199;-65
2023/01/29 11:26:19;;;;;;;2.90;1.45;;;;;;;5.90;51.11;95404.88;4971917;28;20203;-64
2023/01/29 11:28:49;;;;;;;1.23;0.98;;;;;;;5.64;50.98;95405.09;4971316;28;20194;-62
2023/01/29 11:31:24;;;;;;;0.40;0.40;;;;;;;5.86;50.68;95401.91;4971872;28;20261;-67
2023/01/29 11:34:02;;;;;;;1.27;0.82;;;;;;;5.58;51.63;95411.13;4972635;28;20555;-64
2023/01/29 11:36:33;;;;;;;0.00;0.00;;;;;;;5.81;51.23;95401.72;4971063;28;20321;-66
2023/01/29 11:39:18;;;;;;;0.52;0.50;;;;;;;5.82;51.67;95387.69;4966137;28;20196;-66
2023/01/29 11:42:04;;;;;;;0.00;0.00;;;;;;;6.44;50.20;95378.88;4968580;28;20204;-68
2023/01/29 11:44:32;;;;;;;0.38;0.32;;;;;;;6.34;49.91;95378.63;4968000;28;20231;-63
2023/01/29 11:47:22;;;;;;;0.98;0.95;;;;;;;6.46;51.09;95369.06;4968151;28;20687;-65
2023/01/29 11:49:54;;;;;;;1.45;0.88;;;;;;;5.92;52.59;95371.66;4970291;28;20230;-64
2023/01/29 11:52:33;;;;;;;0.30;0.30;;;;;;;6.24;50.63;95369.72;4967772;28;20199;-67
2023/01/29 11:55:28;;;;;;;0.85;0.85;;;;;;;6.24;50.53;95357.50;4968954;28;20203;-60
2023/01/29 11:58:17;;;;;;;0.10;0.10;;;;;;;5.13;52.24;95377.44;4967646;28;20214;-63
2023/01/29 12:00:50;;;;;;;0.10;0.10;;;;;;;5.87;50.88;95374.09;4969281;28;20567;-63
2023/01/29 12:03:22;;;;;;;0.00;0.00;;;;;;;6.04;50.43;95375.13;4968403;28;20199;-63
2023/01/29 12:06:11;;;;;;;0.52;0.52;;;;;;;6.70;49.08;95368.16;4967324;28;20207;-65
2023/01/29 12:08:39;;;;;;;14.32;2.88;;;;;;;6.67;48.69;95366.03;4969179;28;20635;-63
2023/01/29 12:11:07;;;;;;;0.10;0.10;;;;;;;6.31;49.69;95371.25;4969917;28;20298;-61
2023/01/29 12:13:35;;;;;;;0.20;0.20;;;;;;;5.89;50.48;95372.84;4968625;28;20278;-65
2023/01/29 12:16:25;;;;;;;1.42;1.05;;;;;;;6.06;49.89;95360.91;4969307;28;20667;-64
2023/01/29 12:19:05;;;;;;;0.03;0.03;;;;;;;6.56;49.76;95369.34;4968305;28;20198;-63
2023/01/29 12:21:42;;;;;;;0.63;0.60;;;;;;;6.11;49.93;95362.88;4969541;28;20230;-64
2023/01/29 12:24:21;;;;;;;1.38;0.47;;;;;;;6.01;50.18;95372.97;4969133;28;20215;-63
2023/01/29 12:26:48;;;;;;;0.47;0.47;;;;;;;5.70;50.88;95373.00;4966741;28;20199;-63
2023/01/29 12:29:39;;;;;;;0.00;0.00;;;;;;;6.01;50.98;95372.97;4966712;28;20215;-64
2023/01/29 12:32:21;;;;;;;0.10;0.10;;;;;;;5.95;50.14;95371.22;4972333;28;20231;-65
2023/01/29 12:34:54;;;;;;;0.00;0.00;;;;;;;6.36;49.32;95360.19;4968661;28;20201;-65
2023/01/29 12:37:29;;;;;;;0.22;0.22;;;;;;;6.27;49.87;95358.88;4967170;28;20266;-62
2023/01/29 12:39:56;;;;;;;0.10;0.10;;;;;;;6.97;48.53;95372.03;4969238;28;20857;-65
2023/01/29 12:42:24;;;;;;;1.85;1.75;;;;;;;6.89;48.89;95366.34;4969971;28;20254;-65
2023/01/29 12:44:59;;;;;;;2.97;2.15;;;;;;;6.63;49.38;95349.25;4970253;28;20627;-67
2023/01/29 12:47:56;;;;;;;6.82;3.47;;;;;;;7.40;48.02;95366.59;4967220;28;20206;-67
2023/01/29 12:50:27;;;;;;;2.25;2.05;;;;;;;6.79;48.61;95373.88;4968242;28;20227;-65
2023/01/29 12:53:00;;;;;;;0.00;0.00;;;;;;;6.80;48.37;95365.84;4963921;28;20212;-66
2023/01/29 12:55:32;;;;;;;0.20;0.20;;;;;;;6.98;47.75;95365.81;4968346;28;20721;-63
2023/01/29 12:58:21;;;;;;;0.00;0.00;;;;;;;5.83;49.94;95380.72;4968622;28;20578;-64